Woxall, Pennsylvania
Current Conditions -  °F | °C
As of 4:54 PM on Saturday 25 Oct 2014 (Local Time) from KPTW Reporting Station
Clear Clear  
Wind Chill: 67°   Ceiling: Unl
Heat Index: 67°   Visibility: 10mi
Dew Point: 41°   Wind: 9mph
Humidity: 39%   Direction: 240°WSW
Pressure: 29.71"   Gusts: NA
Location:  40.31°N, 75.45°W
Report Text: KPTW 252054Z AUTO 24008KT 10SM CLR 19/05 A2971 RMK AO2 SLP058 T01940050 56025
Loading
Personal Weather Stations






























Interactive Weather Map
Tropical Storm Tracking
New forecast layout! Learn more

10-Day Weather Forecast

Advertisements
Track Severe Weather on mobile